Time Latitude Longitude Accuracy (66% radius in meters) Altitude (meters) Speed (km/hour) Bearing (degrees) Battery (%) GPS flag
10:01:39 56.287898 44.027454 0 0 0 0 1 delete
10:01:38 56.287904 44.027496 0 0 0 0 1 delete
10:01:37 56.287915 44.027544 0 0 0 0 1 delete
10:01:36 56.287928 44.027591 0 0 0 0 1 delete
10:01:35 56.287942 44.027635 0 0 0 0 1 delete
10:01:34 56.287956 44.027675 0 0 0 0 1 delete
10:01:33 56.287968 44.027702 0 0 0 0 1 delete
10:01:32 56.287977 44.027723 0 0 0 0 1 delete
10:01:31 56.287979 44.027729 0 0 0 0 1 delete
10:01:30 56.287979 44.027729 0 0 0 0 1 delete
10:01:29 56.287974 44.027724 0 0 0 0 1 delete
10:01:28 56.287971 44.027721 0 0 0 0 1 delete
10:01:27 56.287979 44.027724 0 0 0 0 1 delete
10:01:26 56.287989 44.027747 0 0 0 0 1 delete
10:01:25 56.287999 44.027786 0 0 0 0 1 delete
10:01:24 56.287997 44.027843 0 0 0 0 1 delete
10:01:23 56.287991 44.027905 0 0 0 0 1 delete
10:01:22 56.287979 44.027971 0 0 0 0 1 delete
10:01:21 56.287961 44.028039 0 0 0 0 1 delete
10:01:20 56.287941 44.028105 0 0 0 0 1 delete
10:01:19 56.287917 44.028172 0 0 0 0 1 delete
10:01:18 56.287894 44.028238 0 0 0 0 1 delete
10:01:17 56.287869 44.028301 0 0 0 0 1 delete
10:01:16 56.287845 44.028365 0 0 0 0 1 delete
10:01:15 56.287819 44.028426 0 0 0 0 1 delete
10:01:14 56.287787 44.028481 0 0 0 0 1 delete
10:01:13 56.287752 44.028515 0 0 0 0 1 delete
10:01:12 56.287715 44.028535 0 0 0 0 1 delete
10:01:11 56.287673 44.028534 0 0 0 0 1 delete
10:01:10 56.287630 44.028530 0 0 0 0 1 delete
10:01:09 56.287588 44.028521 0 0 0 0 1 delete
10:01:08 56.287553 44.028522 0 0 0 0 1 delete
10:01:07 56.287518 44.028525 0 0 0 0 1 delete
10:01:06 56.287485 44.028535 0 0 0 0 1 delete
10:01:05 56.287447 44.028546 0 0 0 0 1 delete
10:01:04 56.287412 44.028570 0 0 0 0 1 delete
10:01:03 56.287382 44.028597 0 0 0 0 1 delete
10:01:02 56.287362 44.028634 0 0 0 0 1 delete
10:01:01 56.287348 44.028667 0 0 0 0 1 delete
10:01:00 56.287330 44.028700 0 0 0 0 1 delete
10:00:59 56.287313 44.028734 0 0 0 0 1 delete
10:00:58 56.287294 44.028770 0 0 0 0 1 delete
10:00:57 56.287279 44.028807 0 0 0 0 1 delete
10:00:56 56.287267 44.028851 0 0 0 0 1 delete
10:00:55 56.287258 44.028895 0 0 0 0 1 delete
10:00:54 56.287245 44.028943 0 0 0 0 1 delete
10:00:53 56.287230 44.028976 0 0 0 0 1 delete
10:00:52 56.287212 44.028999 0 0 0 0 1 delete
10:00:51 56.287195 44.029015 0 0 0 0 1 delete
10:00:50 56.287176 44.029033 0 0 0 0 1 delete